Time;durP1;ratioP1;P1;durP2;ratioP2;P2;SDS_P1;SDS_P2;PMS_P1;PMS_P2;Temp;Humidity;BMP_temperature;BMP_pressure;BME280_temperature;BME280_humidity;BME280_pressure;Samples;Min_cycle;Max_cycle;Signal;HPM_P1;HPM_P2
2023/05/27 00:01:52;;;;;;;10.32;3.60;;;;;;;10.85;81.15;102920.00;5090838;28;20036;-36
2023/05/27 00:04:18;;;;;;;23.27;4.85;;;;;;;10.79;81.75;102932.41;5090240;28;20020;-36
2023/05/27 00:06:43;;;;;;;10.13;2.80;;;;;;;10.69;81.46;102912.88;5089657;28;20032;-36
2023/05/27 00:09:09;;;;;;;9.70;3.35;;;;;;;10.75;81.86;102923.81;5089880;28;20071;-36
2023/05/27 00:11:35;;;;;;;9.05;3.00;;;;;;;10.72;82.49;102920.63;5082433;28;20048;-36
2023/05/27 00:14:00;;;;;;;12.43;3.40;;;;;;;10.65;83.13;102925.09;5076301;28;20491;-36
2023/05/27 00:16:25;;;;;;;9.00;3.43;;;;;;;10.69;82.32;102921.00;5076579;28;20392;-36
2023/05/27 00:18:52;;;;;;;7.47;3.10;;;;;;;10.69;82.54;102919.13;5075923;28;20690;-36
2023/05/27 00:21:18;;;;;;;9.20;3.35;;;;;;;10.54;82.89;102916.38;5075904;28;20021;-36
2023/05/27 00:23:47;;;;;;;13.93;3.80;;;;;;;10.61;82.57;102921.88;5076669;28;20028;-36
2023/05/27 00:26:12;;;;;;;10.55;3.53;;;;;;;10.51;81.87;102919.41;5076356;28;20431;-36
2023/05/27 00:28:37;;;;;;;8.38;3.45;;;;;;;10.59;82.67;102918.53;5076040;28;20115;-36
2023/05/27 00:31:03;;;;;;;10.90;3.40;;;;;;;10.45;82.89;102895.81;5076353;28;20162;-36
2023/05/27 00:33:28;;;;;;;10.52;3.25;;;;;;;10.48;83.76;102911.66;5076269;28;20266;-36
2023/05/27 00:35:54;;;;;;;11.07;3.03;;;;;;;10.46;83.18;102910.16;5075629;28;20465;-36
2023/05/27 00:38:19;;;;;;;15.73;3.72;;;;;;;10.25;83.43;102911.66;5075601;28;20095;-36
2023/05/27 00:40:46;;;;;;;12.65;3.95;;;;;;;10.28;84.40;102905.03;5075796;28;20060;-36
2023/05/27 00:43:11;;;;;;;8.05;2.90;;;;;;;10.28;85.38;102913.16;5076334;28;20036;-36
2023/05/27 00:45:36;;;;;;;10.60;3.55;;;;;;;10.26;84.65;102905.22;5076266;28;20052;-36
2023/05/27 00:48:03;;;;;;;11.07;3.85;;;;;;;10.18;84.30;102907.09;5076477;28;20025;-36
2023/05/27 00:50:29;;;;;;;10.65;3.67;;;;;;;10.16;85.56;102906.44;5075615;28;20036;-36
2023/05/27 00:52:55;;;;;;;12.07;3.45;;;;;;;10.09;85.30;102908.16;5075274;28;20354;-36
2023/05/27 00:55:22;;;;;;;9.63;3.63;;;;;;;10.13;85.38;102898.69;5075798;28;20089;-36
2023/05/27 00:57:47;;;;;;;8.13;2.78;;;;;;;10.11;85.34;102900.72;5075431;28;20036;-36
2023/05/27 01:00:13;;;;;;;10.05;3.85;;;;;;;10.12;85.85;102887.03;5075728;28;20040;-36
2023/05/27 01:02:42;;;;;;;9.85;3.20;;;;;;;10.06;85.61;102902.09;5075384;28;20522;-36
2023/05/27 01:05:09;;;;;;;11.05;3.38;;;;;;;10.02;86.44;102899.94;5076158;28;20369;-36
2023/05/27 01:07:37;;;;;;;10.50;4.00;;;;;;;10.02;85.72;102900.78;5076120;28;20063;-36
2023/05/27 01:10:21;;;;;;;10.15;3.33;;;;;;;9.90;86.10;102885.94;5075229;28;20036;-36
2023/05/27 01:13:01;;;;;;;8.50;3.17;;;;;;;9.80;87.22;102882.63;5075441;28;20029;-36
2023/05/27 01:15:28;;;;;;;8.20;3.10;;;;;;;9.88;87.58;102889.88;5075434;28;20111;-36
2023/05/27 01:18:02;;;;;;;9.48;3.83;;;;;;;9.67;88.22;102894.00;5075299;28;20029;-36
2023/05/27 01:20:29;;;;;;;8.40;3.35;;;;;;;9.70;88.81;102895.50;5075201;28;20029;-36
2023/05/27 01:22:57;;;;;;;11.35;3.42;;;;;;;9.57;88.53;102893.38;5074287;28;20051;-36
2023/05/27 01:25:23;;;;;;;11.25;3.22;;;;;;;9.60;88.76;102894.88;5074869;28;20033;-36
2023/05/27 01:27:50;;;;;;;11.85;3.50;;;;;;;9.55;89.48;102888.13;5074845;28;20108;-36
2023/05/27 01:30:16;;;;;;;10.90;3.20;;;;;;;9.62;88.86;102895.56;5075064;28;20078;-36
2023/05/27 01:32:51;;;;;;;12.98;3.90;;;;;;;9.54;89.46;102891.84;5075077;28;20525;-36
2023/05/27 01:35:39;;;;;;;9.18;3.55;;;;;;;9.55;88.80;102888.13;5075011;28;20392;-36
2023/05/27 01:38:08;;;;;;;10.38;3.30;;;;;;;9.44;89.27;102882.28;5074611;28;20062;-36
2023/05/27 01:40:38;;;;;;;7.45;2.80;;;;;;;9.51;90.06;102884.09;5074563;28;20067;-36
2023/05/27 01:43:06;;;;;;;8.48;3.28;;;;;;;9.44;89.79;102880.41;5074545;28;20378;-36
2023/05/27 01:45:33;;;;;;;10.13;3.40;;;;;;;9.35;90.72;102881.44;5075065;28;20028;-36
2023/05/27 01:47:58;;;;;;;9.45;2.90;;;;;;;9.44;90.72;102876.88;5075042;28;20157;-36
2023/05/27 01:50:23;;;;;;;9.98;3.03;;;;;;;9.41;90.82;102882.63;5074736;28;20066;-36
2023/05/27 01:52:49;;;;;;;10.27;3.92;;;;;;;9.34;90.74;102871.69;5074949;28;20028;-36
2023/05/27 01:55:15;;;;;;;11.52;3.28;;;;;;;9.38;91.25;102875.72;5074651;28;20025;-36
2023/05/27 01:57:40;;;;;;;8.90;3.25;;;;;;;9.25;91.14;102881.66;5073987;28;20472;-36
2023/05/27 02:00:09;;;;;;;9.07;3.53;;;;;;;9.21;91.38;102882.16;5074336;28;20130;-36
2023/05/27 02:02:34;;;;;;;9.73;3.47;;;;;;;9.21;92.85;102883.00;5073934;28;20459;-36
2023/05/27 02:05:00;;;;;;;12.63;3.42;;;;;;;9.16;91.65;102879.97;5073904;28;20067;-36
2023/05/27 02:07:26;;;;;;;9.83;3.17;;;;;;;9.23;92.10;102878.28;5074745;28;20032;-36
2023/05/27 02:09:52;;;;;;;12.73;3.67;;;;;;;9.21;93.00;102874.91;5074023;28;20464;-36
2023/05/27 02:12:17;;;;;;;10.35;3.05;;;;;;;9.19;91.28;102886.91;5074294;28;20031;-36
2023/05/27 02:14:44;;;;;;;10.00;3.00;;;;;;;9.08;91.88;102880.00;5074226;28;20028;-36
2023/05/27 02:17:10;;;;;;;10.88;3.60;;;;;;;8.95;93.96;102874.28;5074250;28;20127;-36
2023/05/27 02:19:35;;;;;;;12.70;3.55;;;;;;;9.01;93.29;102874.44;5073920;28;20528;-36
2023/05/27 02:22:01;;;;;;;12.20;3.60;;;;;;;9.07;93.16;102883.69;5074186;28;20035;-36
2023/05/27 02:24:26;;;;;;;9.90;3.07;;;;;;;8.99;94.13;102879.19;5074377;28;20025;-36
2023/05/27 02:26:51;;;;;;;15.63;4.13;;;;;;;8.93;93.57;102871.78;5074150;28;20618;-36
2023/05/27 02:29:17;;;;;;;9.37;3.23;;;;;;;8.97;94.72;102877.66;5073551;28;20396;-36
2023/05/27 02:31:42;;;;;;;10.63;3.63;;;;;;;9.01;94.16;102884.41;5073578;28;20529;-36
2023/05/27 02:34:07;;;;;;;9.87;3.47;;;;;;;9.02;94.16;102883.38;5073532;28;20488;-36
2023/05/27 02:36:33;;;;;;;8.57;3.27;;;;;;;8.99;94.41;102871.09;5074274;28;20032;-36
2023/05/27 02:38:59;;;;;;;12.68;3.40;;;;;;;8.95;93.54;102874.28;5074113;28;20033;-36
2023/05/27 02:41:24;;;;;;;8.18;3.45;;;;;;;8.77;94.95;102877.16;5073951;28;20441;-36
2023/05/27 02:43:50;;;;;;;11.50;4.05;;;;;;;8.91;95.59;102883.75;5073314;28;20107;-36
2023/05/27 02:46:15;;;;;;;9.50;3.90;;;;;;;8.84;94.82;102883.59;5073978;28;20043;-36
2023/05/27 02:48:40;;;;;;;9.27;3.60;;;;;;;8.93;94.86;102884.41;5073289;28;20024;-36
2023/05/27 02:51:05;;;;;;;9.73;3.33;;;;;;;8.89;95.10;102886.63;5073356;28;20037;-36
2023/05/27 02:53:31;;;;;;;9.60;3.20;;;;;;;8.82;95.42;102890.16;5073240;28;20056;-36
2023/05/27 02:55:56;;;;;;;8.83;2.97;;;;;;;8.77;95.45;102890.66;5073106;28;20064;-36
2023/05/27 02:58:21;;;;;;;7.67;2.73;;;;;;;8.68;96.35;102878.19;5073744;28;20028;-36
2023/05/27 03:00:47;;;;;;;10.73;3.80;;;;;;;8.84;95.56;102894.38;5074007;28;20049;-36
2023/05/27 03:03:12;;;;;;;10.63;3.53;;;;;;;8.76;96.22;102895.22;5073185;28;20480;-36
2023/05/27 03:05:40;;;;;;;12.95;3.78;;;;;;;8.79;96.13;102890.50;5073756;28;20025;-36
2023/05/27 03:08:06;;;;;;;8.90;3.85;;;;;;;8.72;96.92;102901.94;5073019;28;20029;-36
2023/05/27 03:10:32;;;;;;;8.70;3.13;;;;;;;8.72;96.65;102906.50;5073405;28;20036;-36
2023/05/27 03:12:57;;;;;;;7.13;3.30;;;;;;;8.65;96.66;102903.66;5072952;28;20310;-36
2023/05/27 03:15:23;;;;;;;10.50;3.50;;;;;;;8.65;96.89;102903.66;5073953;28;20117;-36
2023/05/27 03:17:48;;;;;;;7.95;3.30;;;;;;;8.63;96.76;102904.81;5073235;28;20746;-36
2023/05/27 03:20:16;;;;;;;11.82;3.88;;;;;;;8.54;97.58;102893.19;5073796;28;20029;-36
2023/05/27 03:22:42;;;;;;;10.73;4.15;;;;;;;8.47;99.16;102898.41;5073176;28;20116;-36
2023/05/27 03:25:07;;;;;;;10.65;3.83;;;;;;;8.59;98.26;102895.38;5073220;28;20154;-36
2023/05/27 03:27:33;;;;;;;15.98;4.75;;;;;;;8.55;98.85;102894.03;5072915;28;20043;-36
2023/05/27 03:29:58;;;;;;;9.95;3.55;;;;;;;8.37;99.48;102865.38;5073145;28;20032;-36
2023/05/27 03:32:24;;;;;;;10.97;4.37;;;;;;;8.51;99.11;102883.56;5072900;28;20028;-36
2023/05/27 03:34:49;;;;;;;11.05;3.97;;;;;;;8.42;99.85;102881.88;5073081;28;20081;-35
2023/05/27 03:37:14;;;;;;;10.27;4.00;;;;;;;8.47;98.79;102879.53;5073095;28;20385;-35
2023/05/27 03:39:40;;;;;;;12.02;4.10;;;;;;;8.46;99.55;102883.25;5072748;28;20033;-36
2023/05/27 03:42:06;;;;;;;10.33;4.23;;;;;;;8.50;99.39;102879.19;5073959;28;20027;-35
2023/05/27 03:44:32;;;;;;;12.32;3.60;;;;;;;8.50;99.35;102879.19;5073595;28;20039;-35
2023/05/27 03:46:57;;;;;;;17.75;5.05;;;;;;;8.47;99.07;102876.84;5075104;28;20029;-36
2023/05/27 03:49:22;;;;;;;11.85;4.47;;;;;;;8.32;100.00;102866.84;5076743;28;20575;-35
2023/05/27 03:51:48;;;;;;;10.20;3.70;;;;;;;8.35;100.00;102872.75;5077231;28;20033;-36
2023/05/27 03:54:13;;;;;;;12.35;5.10;;;;;;;8.37;100.00;102868.06;5076372;28;20037;-35
2023/05/27 03:56:39;;;;;;;12.50;4.90;;;;;;;8.36;100.00;102870.91;5077224;28;20028;-36
2023/05/27 03:59:06;;;;;;;11.32;3.47;;;;;;;8.45;100.00;102860.00;5076341;28;20029;-35
2023/05/27 04:01:31;;;;;;;17.38;4.50;;;;;;;8.42;100.00;102865.69;5077383;28;20040;-36
2023/05/27 04:03:56;;;;;;;9.68;3.60;;;;;;;8.40;100.00;102866.91;5077032;28;20016;-35
2023/05/27 04:06:22;;;;;;;11.50;4.53;;;;;;;8.37;100.00;102861.81;5077093;28;20025;-36
2023/05/27 04:08:47;;;;;;;9.23;3.80;;;;;;;8.38;100.00;102861.66;5076356;28;20028;-36
2023/05/27 04:11:12;;;;;;;11.47;3.90;;;;;;;8.35;100.00;102866.53;5076158;28;20484;-36
2023/05/27 04:13:39;;;;;;;12.67;4.50;;;;;;;8.26;100.00;102860.28;5077130;28;20024;-35
2023/05/27 04:16:04;;;;;;;;;;;;;;;8.43;99.59;102864.69;5076710;28;20025;-35
2023/05/27 04:18:29;;;;;;;12.57;4.45;;;;;;;8.42;100.00;102857.63;5076245;28;20284;-35
2023/05/27 04:20:55;;;;;;;10.53;4.17;;;;;;;8.36;100.00;102855.59;5076438;28;20024;-36
2023/05/27 04:23:20;;;;;;;13.03;4.43;;;;;;;8.42;100.00;102854.09;5076176;28;20082;-35
2023/05/27 04:25:48;;;;;;;14.07;4.40;;;;;;;8.39;100.00;102847.16;5076706;28;20021;-36
2023/05/27 04:28:15;;;;;;;11.10;3.78;;;;;;;8.43;100.00;102856.59;5076010;28;20119;-35
2023/05/27 04:30:40;;;;;;;13.90;4.80;;;;;;;8.41;100.00;102850.53;5075707;28;20028;-36
2023/05/27 04:33:09;;;;;;;16.35;4.93;;;;;;;8.48;100.00;102856.94;5075918;28;20025;-35
2023/05/27 04:35:34;;;;;;;11.05;4.00;;;;;;;8.59;100.00;102853.09;5076238;28;20037;-36
2023/05/27 04:38:01;;;;;;;12.02;4.53;;;;;;;8.47;100.00;102851.72;5075859;28;20435;-36
2023/05/27 04:40:26;;;;;;;10.57;4.57;;;;;;;8.35;100.00;102848.50;5075779;28;20060;-36
2023/05/27 04:42:52;;;;;;;12.88;4.35;;;;;;;8.48;100.00;102838.06;5075739;28;20059;-36
2023/05/27 04:45:18;;;;;;;10.75;3.85;;;;;;;8.62;100.00;102841.09;5075509;28;20068;-36
2023/05/27 04:47:44;;;;;;;11.13;3.90;;;;;;;8.75;100.00;102836.03;5075670;28;20028;-36
2023/05/27 04:50:13;;;;;;;11.50;4.38;;;;;;;8.77;100.00;102839.41;5075668;28;20085;-35
2023/05/27 04:52:40;;;;;;;14.27;5.20;;;;;;;8.70;100.00;102838.41;5075537;28;20081;-36
2023/05/27 04:55:07;;;;;;;11.77;5.18;;;;;;;8.74;100.00;102837.06;5075291;28;20047;-36
2023/05/27 04:57:33;;;;;;;12.20;4.50;;;;;;;8.75;100.00;102836.88;5075471;28;20095;-35
2023/05/27 05:02:47;;;;;;;12.05;4.88;;;;;;;9.13;100.00;102833.63;5074663;28;20365;-36
2023/05/27 05:05:13;;;;;;;9.40;3.88;;;;;;;9.12;100.00;102821.94;5075353;28;20036;-36
2023/05/27 05:07:40;;;;;;;9.65;4.65;;;;;;;9.14;100.00;102835.28;5075318;28;20029;-36
2023/05/27 05:10:07;;;;;;;12.30;4.60;;;;;;;9.08;100.00;102828.75;5075170;28;20032;-36
2023/05/27 05:12:32;;;;;;;7.70;3.90;;;;;;;9.20;100.00;102834.59;5075483;28;20078;-36
2023/05/27 05:14:58;;;;;;;10.50;4.35;;;;;;;9.21;100.00;102833.56;5075762;28;20107;-36
2023/05/27 05:17:24;;;;;;;10.67;4.07;;;;;;;9.39;99.16;102831.50;5075165;28;20525;-36
2023/05/27 05:19:50;;;;;;;10.48;4.22;;;;;;;9.45;100.00;102825.38;5075263;28;20024;-36
2023/05/27 05:22:18;;;;;;;17.73;5.32;;;;;;;9.54;99.63;102837.84;5075088;28;20070;-35
2023/05/27 05:24:44;;;;;;;16.38;5.15;;;;;;;9.33;99.25;102831.34;5074934;28;20439;-36
2023/05/27 05:27:09;;;;;;;;;;;;;;;9.59;98.87;102841.88;5075721;28;20029;-36
2023/05/27 05:29:36;;;;;;;12.07;5.05;;;;;;;9.48;99.23;102833.16;5074549;28;20021;-37
2023/05/27 05:32:02;;;;;;;13.52;5.05;;;;;;;9.38;100.00;102831.69;5074920;28;20432;-36
2023/05/27 05:34:27;;;;;;;13.18;4.20;;;;;;;9.48;99.82;102837.72;5074266;28;20029;-35
2023/05/27 05:36:52;;;;;;;13.13;4.30;;;;;;;9.40;99.70;102833.16;5074400;28;20052;-36
2023/05/27 05:39:18;;;;;;;12.40;4.87;;;;;;;9.44;100.00;102830.97;5073972;28;20093;-36
2023/05/27 05:41:43;;;;;;;11.65;4.70;;;;;;;9.60;100.00;102832.75;5075378;28;20150;-36
2023/05/27 05:44:09;;;;;;;9.55;4.18;;;;;;;9.73;100.00;102823.06;5074522;28;20438;-36
2023/05/27 05:46:34;;;;;;;14.32;5.45;;;;;;;9.71;99.22;102816.13;5075109;28;20035;-36
2023/05/27 05:48:59;;;;;;;13.63;4.63;;;;;;;9.83;99.08;102827.41;5073797;28;20086;-36
2023/05/27 05:51:25;;;;;;;10.83;4.33;;;;;;;9.95;98.45;102829.50;5074346;28;20033;-36
2023/05/27 05:53:50;;;;;;;9.98;4.45;;;;;;;10.02;98.90;102813.44;5073978;28;20485;-36
2023/05/27 05:56:16;;;;;;;11.63;4.77;;;;;;;10.12;98.03;102815.91;5074312;28;20025;-36
2023/05/27 05:58:41;;;;;;;15.55;5.57;;;;;;;10.10;97.87;102816.06;5074605;28;20463;-36
2023/05/27 06:01:07;;;;;;;10.57;4.20;;;;;;;10.17;97.61;102810.78;5074656;28;20045;-36
2023/05/27 06:03:32;;;;;;;11.47;4.70;;;;;;;10.31;97.89;102810.88;5074504;28;20029;-36
2023/05/27 06:05:58;;;;;;;14.07;4.40;;;;;;;10.48;98.54;102802.63;5074455;28;20427;-36
2023/05/27 06:08:23;;;;;;;16.60;5.40;;;;;;;10.52;96.43;102799.38;5074650;28;20032;-36
2023/05/27 06:10:49;;;;;;;15.87;6.30;;;;;;;10.45;96.66;102803.84;5074140;28;20044;-36
2023/05/27 06:13:14;;;;;;;12.47;4.23;;;;;;;10.48;97.44;102792.63;5074076;28;20025;-36
2023/05/27 06:15:39;;;;;;;10.95;4.15;;;;;;;10.68;96.18;102805.66;5074049;28;20354;-36
2023/05/27 06:18:05;;;;;;;11.30;4.40;;;;;;;10.65;94.71;102803.31;5073644;28;20025;-36
2023/05/27 06:20:30;;;;;;;15.13;5.30;;;;;;;10.79;95.40;102807.94;5073957;28;20028;-36
2023/05/27 06:22:55;;;;;;;10.90;4.17;;;;;;;10.94;95.12;102808.78;5074115;28;20777;-36
2023/05/27 06:25:21;;;;;;;12.93;4.67;;;;;;;10.98;93.67;102796.56;5073618;28;20873;-36
2023/05/27 06:27:46;;;;;;;11.73;4.82;;;;;;;11.05;93.35;102792.06;5074059;28;20025;-36
2023/05/27 06:30:12;;;;;;;11.83;4.93;;;;;;;11.30;95.37;102792.59;5073795;28;20067;-36
2023/05/27 06:32:37;;;;;;;14.27;4.30;;;;;;;11.35;93.11;102783.91;5073528;28;20385;-37
2023/05/27 06:35:03;;;;;;;14.10;5.43;;;;;;;11.50;92.64;102782.03;5074327;28;20106;-37
2023/05/27 06:37:29;;;;;;;18.77;4.85;;;;;;;11.47;90.95;102782.41;5074036;28;20035;-36
2023/05/27 06:39:54;;;;;;;11.53;4.23;;;;;;;11.66;92.51;102780.09;5073291;28;20526;-37
2023/05/27 06:42:19;;;;;;;13.90;4.43;;;;;;;11.84;90.40;102780.56;5073936;28;20044;-37
2023/05/27 06:44:45;;;;;;;12.93;4.47;;;;;;;11.74;88.44;102777.28;5073703;28;20453;-37
2023/05/27 06:47:11;;;;;;;14.00;4.70;;;;;;;11.77;88.60;102771.50;5074140;28;20078;-37
2023/05/27 06:49:36;;;;;;;13.80;4.75;;;;;;;11.79;88.95;102782.97;5073840;28;20051;-36
2023/05/27 06:52:02;;;;;;;9.50;4.03;;;;;;;11.73;89.55;102767.50;5073647;28;20051;-37
2023/05/27 06:54:28;;;;;;;10.98;5.15;;;;;;;11.83;90.21;102776.19;5073186;28;20021;-37
2023/05/27 06:56:53;;;;;;;15.98;5.63;;;;;;;11.91;89.30;102767.94;5073837;28;20036;-37
2023/05/27 06:59:18;;;;;;;15.63;4.97;;;;;;;11.90;88.32;102773.53;5073260;28;20052;-36
2023/05/27 07:01:44;;;;;;;15.10;4.50;;;;;;;11.87;87.42;102777.47;5073836;28;20623;-37
2023/05/27 07:04:09;;;;;;;14.10;4.75;;;;;;;11.89;87.82;102769.13;5073747;28;20078;-36
2023/05/27 07:06:36;;;;;;;11.00;4.25;;;;;;;12.04;88.88;102762.63;5074022;28;20039;-37
2023/05/27 07:09:02;;;;;;;13.45;4.82;;;;;;;12.10;86.53;102764.56;5073372;28;20029;-37
2023/05/27 07:11:28;;;;;;;12.13;4.45;;;;;;;12.18;86.19;102768.16;5073929;28;20032;-37
2023/05/27 07:13:53;;;;;;;11.73;4.33;;;;;;;12.34;87.70;102767.88;5073358;28;20024;-37
2023/05/27 07:16:19;;;;;;;18.35;5.38;;;;;;;12.45;86.04;102763.81;5073950;28;20258;-37
2023/05/27 07:18:44;;;;;;;17.55;5.97;;;;;;;12.36;84.81;102750.38;5073272;28;20035;-37
2023/05/27 07:21:10;;;;;;;11.77;4.85;;;;;;;12.32;84.02;102765.38;5074367;28;20033;-37
2023/05/27 07:23:35;;;;;;;13.68;4.82;;;;;;;12.43;85.33;102764.00;5077286;28;20107;-37
2023/05/27 07:26:00;;;;;;;11.82;4.53;;;;;;;12.52;85.03;102770.13;5077367;28;20028;-37
2023/05/27 07:28:26;;;;;;;11.45;4.38;;;;;;;12.70;85.17;102759.63;5077196;28;20024;-37
2023/05/27 07:30:51;;;;;;;8.93;4.15;;;;;;;12.80;84.36;102743.81;5077206;28;20029;-37
2023/05/27 07:33:17;;;;;;;10.77;4.90;;;;;;;12.93;82.85;102748.47;5077084;28;20028;-37
2023/05/27 07:35:42;;;;;;;12.43;4.50;;;;;;;13.10;83.87;102751.69;5077077;28;20033;-37
2023/05/27 07:38:08;;;;;;;10.60;4.75;;;;;;;13.12;81.16;102755.88;5077257;28;20088;-37
2023/05/27 07:40:33;;;;;;;13.85;4.78;;;;;;;13.05;80.87;102749.59;5077159;28;20032;-37
2023/05/27 07:42:59;;;;;;;14.98;4.93;;;;;;;13.17;81.51;102747.13;5077079;28;20457;-37
2023/05/27 07:45:27;;;;;;;14.07;5.15;;;;;;;13.05;81.71;102741.44;5077358;28;20029;-37
2023/05/27 07:47:52;;;;;;;12.95;5.38;;;;;;;13.01;81.71;102744.75;5076569;28;20465;-37
2023/05/27 07:50:20;;;;;;;;;;;;;;;13.21;81.75;102742.97;5077515;28;20142;-37
2023/05/27 07:52:46;;;;;;;;;;;;;;;13.36;82.36;102737.41;5077679;28;19909;-37
2023/05/27 07:55:12;;;;;;;12.75;4.32;;;;;;;13.44;80.75;102720.94;5077210;28;19919;-36
2023/05/27 07:57:37;;;;;;;12.00;4.90;;;;;;;13.58;79.98;102728.09;5076646;28;20380;-36
2023/05/27 08:00:05;;;;;;;9.43;4.43;;;;;;;13.55;78.78;102712.19;5076622;28;20097;-36
2023/05/27 08:02:31;;;;;;;11.27;5.13;;;;;;;13.72;78.41;102728.13;5077093;28;20021;-36
2023/05/27 08:04:57;;;;;;;;;;;;;;;13.86;79.29;102729.84;5077501;28;20035;-36
2023/05/27 08:07:22;;;;;;;13.43;4.97;;;;;;;13.77;78.03;102725.63;5076481;28;19916;-36
2023/05/27 08:09:48;;;;;;;11.65;4.68;;;;;;;13.80;77.68;102723.31;5076200;28;20527;-36
2023/05/27 08:12:13;;;;;;;18.13;4.90;;;;;;;13.98;78.64;102714.56;5076949;28;20025;-36
2023/05/27 08:14:40;;;;;;;13.20;5.43;;;;;;;13.97;75.59;102721.03;5076882;28;20024;-36
2023/05/27 08:17:05;;;;;;;10.02;4.22;;;;;;;14.20;78.68;102709.75;5076290;28;20414;-36
2023/05/27 08:19:31;;;;;;;;;;;;;;;14.26;76.39;102718.97;5076549;28;20039;-36
2023/05/27 08:21:57;;;;;;;12.50;5.00;;;;;;;14.38;76.33;102709.09;5076415;28;19912;-36
2023/05/27 08:24:22;;;;;;;;;;;;;;;14.65;77.79;102705.34;5076561;28;20100;-36
2023/05/27 08:26:47;;;;;;;10.35;4.43;;;;;;;14.74;76.04;102695.06;5075707;28;20434;-36
2023/05/27 08:29:13;;;;;;;12.77;4.68;;;;;;;14.89;74.24;102689.34;5076123;28;20035;-36
2023/05/27 08:31:38;;;;;;;;;;;;;;;15.08;74.95;102685.72;5076604;28;20157;-36
2023/05/27 08:34:04;;;;;;;14.40;4.93;;;;;;;14.99;72.08;102681.56;5075967;28;19912;-36
2023/05/27 08:36:31;;;;;;;;;;;;;;;15.04;72.53;102670.84;5076695;28;20036;-37
2023/05/27 08:38:56;;;;;;;11.43;4.60;;;;;;;14.98;73.06;102660.78;5076682;28;20303;-36
2023/05/27 08:41:22;;;;;;;;;;;;;;;15.26;73.21;102668.63;5076310;28;20036;-36
2023/05/27 08:43:47;;;;;;;12.40;4.78;;;;;;;15.38;71.32;102658.72;5076584;28;19912;-37
2023/05/27 08:46:13;;;;;;;;;;;;;;;15.54;72.44;102651.91;5076517;28;20032;-36
2023/05/27 08:48:40;;;;;;;16.92;4.90;;;;;;;15.70;71.44;102662.28;5075659;28;19913;-37
2023/05/27 08:51:06;;;;;;;12.95;5.15;;;;;;;15.78;71.26;102653.00;5075969;28;20389;-36
2023/05/27 08:53:31;;;;;;;;;;;;;;;15.96;70.26;102653.06;5076099;28;20024;-36
2023/05/27 08:55:58;;;;;;;11.27;4.68;;;;;;;15.97;68.36;102645.72;5075560;28;19958;-36
2023/05/27 08:58:24;;;;;;;12.07;5.13;;;;;;;15.85;67.84;102636.56;5076021;28;20032;-36
2023/05/27 09:00:50;;;;;;;;;;;;;;;16.19;67.77;102657.06;5077075;28;20047;-36
2023/05/27 09:03:16;;;;;;;11.02;5.20;;;;;;;16.27;67.63;102639.56;5075467;28;19917;-36
2023/05/27 09:05:41;;;;;;;10.30;4.47;;;;;;;16.63;67.97;102645.03;5075423;28;20059;-37
2023/05/27 09:08:07;;;;;;;;;;;;;;;16.78;64.56;102646.56;5075818;28;20063;-36
2023/05/27 09:10:39;;;;;;;16.52;5.50;;;;;;;16.54;64.03;102640.09;5075586;28;20069;-36
2023/05/27 09:13:05;;;;;;;10.80;4.80;;;;;;;16.68;65.00;102631.53;5075130;28;20036;-36
2023/05/27 09:15:31;;;;;;;;;;;;;;;16.90;65.24;102639.28;5076209;28;20056;-36
2023/05/27 09:17:56;;;;;;;11.38;5.25;;;;;;;17.01;61.58;102638.50;5075071;28;20382;-36
2023/05/27 09:20:26;;;;;;;;;;;;;;;17.16;61.75;102628.00;5076099;28;20043;-36
2023/05/27 09:22:57;;;;;;;10.40;4.60;;;;;;;17.12;61.50;102615.03;5074963;28;20006;-36
2023/05/27 09:25:24;;;;;;;16.52;5.15;;;;;;;17.13;61.05;102625.75;5074994;28;20469;-36
2023/05/27 09:27:49;;;;;;;15.25;5.68;;;;;;;17.10;60.33;102617.16;5074517;28;20472;-36
2023/05/27 09:30:18;;;;;;;15.63;4.97;;;;;;;16.87;59.86;102601.50;5075086;28;20041;-36
2023/05/27 09:32:44;;;;;;;12.85;4.97;;;;;;;16.91;61.89;102619.09;5075033;28;20393;-36
2023/05/27 09:35:11;;;;;;;;;;;;;;;17.19;62.99;102613.88;5075622;28;20039;-36
2023/05/27 09:37:36;;;;;;;13.35;5.55;;;;;;;17.19;61.42;102613.88;5075209;28;19912;-36
2023/05/27 09:40:05;;;;;;;;;;;;;;;17.36;61.04;102607.72;5075471;28;20020;-36
2023/05/27 09:42:43;;;;;;;10.82;5.10;;;;;;;17.28;60.07;102613.56;5074559;28;20365;-36
2023/05/27 09:45:13;;;;;;;11.60;4.75;;;;;;;17.33;60.86;102592.66;5073669;28;20024;-36
2023/05/27 09:47:41;;;;;;;11.48;4.55;;;;;;;17.44;60.47;102607.41;5074732;28;20028;-36
2023/05/27 09:50:11;;;;;;;10.32;4.97;;;;;;;17.47;59.50;102598.72;5074402;28;20484;-36
2023/05/27 09:52:39;;;;;;;16.35;5.78;;;;;;;17.48;59.41;102598.50;5074589;28;20035;-36
2023/05/27 09:55:07;;;;;;;13.57;5.43;;;;;;;17.31;59.92;102594.75;5074501;28;20031;-36
2023/05/27 09:57:33;;;;;;;9.50;4.22;;;;;;;17.46;61.28;102592.41;5074309;28;20115;-36
2023/05/27 09:59:59;;;;;;;12.85;4.95;;;;;;;17.40;60.40;102590.63;5074238;28;20052;-36
2023/05/27 10:02:26;;;;;;;13.05;4.97;;;;;;;17.25;59.94;102582.03;5074668;28;20040;-36
2023/05/27 10:04:52;;;;;;;12.73;4.88;;;;;;;17.34;60.58;102582.53;5074328;28;20024;-36
2023/05/27 10:07:20;;;;;;;15.35;5.32;;;;;;;17.31;59.32;102588.47;5074084;28;20028;-36
2023/05/27 10:09:46;;;;;;;10.68;4.38;;;;;;;17.44;60.17;102589.09;5074772;28;20032;-36
2023/05/27 10:12:14;;;;;;;14.98;4.63;;;;;;;17.32;58.27;102584.66;5073997;28;20032;-36
2023/05/27 10:14:40;;;;;;;13.43;4.68;;;;;;;17.24;58.72;102575.75;5074204;28;20423;-36
2023/05/27 10:17:05;;;;;;;13.70;5.35;;;;;;;17.10;58.92;102579.72;5073960;28;20028;-36
2023/05/27 10:19:30;;;;;;;;;;;;;;;17.27;60.59;102568.94;5073994;28;20024;-36
2023/05/27 10:22:06;;;;;;;10.03;4.60;;;;;;;17.34;60.42;102574.34;5074189;28;19912;-36
2023/05/27 10:24:33;;;;;;;10.18;4.90;;;;;;;17.41;59.20;102577.78;5073805;28;20358;-36
2023/05/27 10:27:02;;;;;;;12.70;5.20;;;;;;;17.71;57.71;102558.56;5074133;28;20021;-36
2023/05/27 10:29:36;;;;;;;16.92;4.95;;;;;;;18.00;58.75;102565.00;5073706;28;20046;-36
2023/05/27 10:32:02;;;;;;;13.07;4.65;;;;;;;18.28;57.87;102553.31;5073467;28;20063;-36
2023/05/27 10:34:37;;;;;;;16.70;5.60;;;;;;;18.23;55.59;102556.78;5074011;28;20059;-36
2023/05/27 10:37:03;;;;;;;13.90;5.00;;;;;;;18.73;56.63;102556.19;5074039;28;20197;-36
2023/05/27 10:39:29;;;;;;;;;;;;;;;19.05;54.63;102552.97;5074229;28;20492;-36
2023/05/27 10:41:56;;;;;;;13.15;4.78;;;;;;;19.13;53.17;102543.47;5074358;28;20360;-36
2023/05/27 10:44:30;;;;;;;12.02;4.50;;;;;;;19.34;52.52;102547.44;5073959;28;20028;-36
2023/05/27 10:47:03;;;;;;;9.80;4.35;;;;;;;19.54;51.79;102539.53;5073530;28;20115;-36
2023/05/27 10:49:35;;;;;;;12.43;4.32;;;;;;;19.68;51.45;102540.88;5074079;28;20044;-36
2023/05/27 10:52:12;;;;;;;11.18;4.35;;;;;;;19.96;51.54;102530.84;5073541;28;20035;-36
2023/05/27 10:54:43;;;;;;;13.75;5.50;;;;;;;19.71;49.77;102531.28;5074145;28;20031;-36
2023/05/27 10:57:08;;;;;;;11.18;4.38;;;;;;;19.93;51.35;102521.22;5073226;28;20028;-36
2023/05/27 10:59:57;;;;;;;10.95;4.93;;;;;;;20.21;49.81;102519.38;5073320;28;20071;-36
2023/05/27 11:02:23;;;;;;;10.18;4.43;;;;;;;20.17;48.57;102519.06;5073590;28;20443;-36
2023/05/27 11:04:48;;;;;;;12.57;4.40;;;;;;;20.49;49.07;102518.38;5073238;28;20111;-36
2023/05/27 11:07:18;;;;;;;14.10;4.80;;;;;;;20.36;47.61;102516.81;5073220;28;20158;-37
2023/05/27 11:09:45;;;;;;;10.15;4.50;;;;;;;20.50;45.69;102495.31;5073935;28;20111;-36
2023/05/27 11:12:21;;;;;;;11.50;4.03;;;;;;;20.57;46.14;102493.19;5073993;28;20035;-37
2023/05/27 11:14:54;;;;;;;13.80;4.20;;;;;;;20.70;45.25;102512.03;5073604;28;20052;-37
2023/05/27 11:17:20;;;;;;;10.07;4.40;;;;;;;20.66;45.12;102491.63;5073609;28;20376;-36
2023/05/27 11:19:46;;;;;;;11.20;3.78;;;;;;;20.88;47.00;102488.81;5073514;28;20100;-36
2023/05/27 11:22:13;;;;;;;12.60;4.10;;;;;;;21.09;44.95;102478.84;5073383;28;20461;-36
2023/05/27 11:24:42;;;;;;;12.63;3.75;;;;;;;20.98;42.59;102477.91;5072961;28;20033;-36
2023/05/27 11:27:08;;;;;;;7.93;3.47;;;;;;;21.10;41.79;102475.00;5074034;28;20381;-36